Lazear, Colorado
Current Conditions -  °F | °C
As of 4:15 PM on Tuesday 27 Jan 2015 (Local Time) from KAJZ Reporting Station
Broken Clouds Broken Clouds  
Wind Chill: 57°   Ceiling: 10000
Heat Index: 57°   Visibility: 10mi
Dew Point: 30°   Wind: 8mph
Humidity: 36%   Direction: 250°WSW
Pressure: 30.22"   Gusts: NA
Location:  38.78°N, 107.78°W
Report Text: KAJZ 272315Z AUTO 25007KT 10SM BKN100 14/M01 A3022 RMK AO2 T01381010
Loading
Personal Weather Stations






























Interactive Weather Map New forecast layout! Learn more

10-Day Weather Forecast

Advertisements
Track Severe Weather on mobile